Time;durP1;ratioP1;P1;durP2;ratioP2;P2;SDS_P1;SDS_P2;PMS_P1;PMS_P2;Temp;Humidity;BMP_temperature;BMP_pressure;BME280_temperature;BME280_humidity;BME280_pressure;Samples;Min_cycle;Max_cycle;Signal;HPM_P1;HPM_P2
2021/07/16 00:34:46;;;;;;;;;10.33;9.33;;;;;19.78;59.85;101858.81;4842789;24;44896;-93
2021/07/16 00:47:49;;;;;;;;;;;;;;;;;;;;;
2021/07/16 01:12:58;;;;;;;;;11.00;10.33;;;;;19.61;59.85;101858.88;5077568;24;45826;-93
2021/07/16 01:31:19;;;;;;;;;11.67;9.00;;;;;19.52;60.28;101857.09;5206083;24;45670;-94
2021/07/16 02:08:32;;;;;;;;;;;;;;;;;;;;;
2021/07/16 05:10:18;;;;;;;;;6.00;4.33;;;;;19.05;64.01;101885.56;4796753;29;46407;-79
2021/07/16 05:12:44;;;;;;;;;6.67;6.00;;;;;19.04;64.19;101882.00;4774626;29;45562;-79
2021/07/16 05:15:10;;;;;;;;;8.00;5.00;;;;;19.06;63.99;101880.22;4791077;29;45215;-80
2021/07/16 05:17:36;;;;;;;;;5.33;5.33;;;;;19.09;64.79;101882.91;4791152;29;45540;-80
2021/07/16 05:20:04;;;;;;;;;6.33;6.00;;;;;19.13;64.68;101885.56;4790465;29;46339;-82
2021/07/16 05:22:30;;;;;;;;;9.00;7.00;;;;;19.15;64.25;101891.81;4790988;29;45407;-79
2021/07/16 05:24:55;;;;;;;;;8.67;7.00;;;;;19.13;64.43;101883.78;4790952;29;45320;-80
2021/07/16 05:27:20;;;;;;;;;9.00;6.00;;;;;19.15;64.51;101895.38;4790913;29;45447;-80
2021/07/16 05:29:46;;;;;;;;;11.00;7.00;;;;;19.18;64.00;101899.81;4790638;29;47089;-80
2021/07/16 05:32:11;;;;;;;;;8.33;5.67;;;;;19.20;64.49;101904.28;4790672;29;45197;-79
2021/07/16 05:34:38;;;;;;;;;7.33;7.33;;;;;19.20;64.74;101903.38;4790754;29;45167;-81
2021/07/16 05:37:04;;;;;;;;;9.33;6.33;;;;;19.23;64.67;101899.81;4774885;29;45310;-80
2021/07/16 05:39:29;;;;;;;;;6.00;6.00;;;;;19.24;64.60;101905.16;4790417;29;46110;-80
2021/07/16 05:41:54;;;;;;;;;7.00;6.00;;;;;19.26;64.73;101903.38;4790592;29;45377;-80
2021/07/16 05:44:20;;;;;;;;;8.00;7.00;;;;;19.27;64.46;101899.81;4790799;29;45306;-80
2021/07/16 05:46:45;;;;;;;;;6.00;5.67;;;;;19.26;64.65;101898.03;4790739;29;45231;-80
2021/07/16 05:49:11;;;;;;;;;6.33;6.33;;;;;19.26;64.70;101897.16;4790278;29;45275;-80
2021/07/16 05:51:36;;;;;;;;;8.00;5.67;;;;;19.29;64.61;101914.00;4790580;29;45246;-80
2021/07/16 05:54:01;;;;;;;;;5.33;5.00;;;;;19.29;64.31;101911.34;4790511;29;45421;-80
2021/07/16 05:56:27;;;;;;;;;9.00;8.00;;;;;19.28;64.57;101917.59;4790770;29;45354;-80
2021/07/16 05:58:52;;;;;;;;;7.33;6.00;;;;;19.28;64.13;101914.03;4790415;29;46958;-80
2021/07/16 06:01:18;;;;;;;;;10.33;6.33;;;;;19.27;64.37;101910.47;4790251;29;45314;-81
2021/07/16 06:03:44;;;;;;;;;7.00;4.00;;;;;19.27;64.13;101917.59;4790242;29;45568;-80
2021/07/16 06:06:10;;;;;;;;;7.00;7.00;;;;;19.27;64.22;101926.47;4790151;29;45310;-80
2021/07/16 06:08:35;;;;;;;;;8.67;6.33;;;;;19.26;63.97;101918.47;4790113;29;45369;-82
2021/07/16 06:11:00;;;;;;;;;6.00;6.00;;;;;19.26;64.66;101923.81;4790189;29;45379;-80
2021/07/16 06:14:04;;;;;;;;;6.33;6.33;;;;;19.25;64.08;101928.22;4790638;29;45938;-93
2021/07/16 06:16:32;;;;;;;;;6.33;4.67;;;;;19.15;63.93;101918.47;4778571;29;45351;-91
2021/07/16 06:25:04;;;;;;;;;;;;;;;;;;;;;
2021/07/16 06:28:16;;;;;;;;;8.33;5.00;;;;;19.10;64.72;101918.41;4774693;29;63511;-95
2021/07/16 06:34:21;;;;;;;;;5.00;5.00;;;;;19.21;64.24;101940.69;4616293;30;45583;-91
2021/07/16 06:40:19;;;;;;;;;8.33;4.33;;;;;19.16;63.99;101933.59;5256011;24;60892;-92
2021/07/16 06:42:47;;;;;;;;;6.00;5.00;;;;;19.14;64.37;101946.00;5078263;24;47995;-93
2021/07/16 06:45:13;;;;;;;;;3.67;3.33;;;;;19.23;64.42;101950.47;4832665;24;45502;-93
2021/07/16 06:49:05;;;;;;;;;6.00;4.00;;;;;19.09;64.29;101933.53;4828635;29;45222;-93
2021/07/16 06:51:12;;;;;;;;;5.00;3.67;;;;;19.20;64.52;101954.91;4811290;29;45254;-94
2021/07/16 06:56:21;;;;;;;;;;;;;;;;;;;;;
2021/07/16 06:58:54;;;;;;;;;5.00;4.33;;;;;19.15;64.22;101955.78;4790453;29;70200;-91
2021/07/16 07:01:20;;;;;;;;;6.33;5.00;;;;;19.25;64.78;101970.03;4790431;29;45531;-93
2021/07/16 07:03:55;;;;;;;;;5.00;4.00;;;;;19.16;64.71;101958.44;4959533;24;47102;-93
2021/07/16 07:06:21;;;;;;;;;4.67;3.67;;;;;19.23;64.58;101977.13;4797503;29;45261;-90
2021/07/16 07:11:21;;;;;;;;;4.00;3.00;;;;;19.09;64.40;101956.63;5046458;24;46366;-93
2021/07/16 07:14:05;;;;;;;;;5.00;4.00;;;;;19.05;64.45;101954.84;4814830;29;47373;-92
2021/07/16 07:16:31;;;;;;;;;3.33;3.00;;;;;19.13;64.31;101982.41;4801594;29;44818;-89
2021/07/16 07:22:30;;;;;;;;;5.33;5.00;;;;;19.16;64.25;101994.88;4727373;30;44814;-90
2021/07/16 07:25:06;;;;;;;;;;;;;;;;;;;;;
2021/07/16 07:28:22;;;;;;;;;5.33;3.33;;;;;19.12;64.75;101982.41;4716038;30;72878;-92
2021/07/16 07:30:48;;;;;;;;;6.00;3.67;;;;;19.04;64.45;101971.72;4638490;30;44778;-91
2021/07/16 07:38:19;;;;;;;;;3.00;2.67;;;;;19.10;64.37;101959.28;4859880;24;45494;-91
2021/07/16 07:53:34;;;;;;;;;2.00;2.00;;;;;19.34;64.25;101959.34;4791986;29;46716;-90
2021/07/16 07:56:58;;;;;;;;;2.00;2.00;;;;;19.55;63.40;101993.13;4792177;29;48644;-93
2021/07/16 07:59:26;;;;;;;;;2.00;2.00;;;;;19.46;63.53;101966.44;4777128;29;45537;-93
2021/07/16 08:01:54;;;;;;;;;3.00;2.00;;;;;19.48;63.28;101963.81;5134408;24;46102;-91
2021/07/16 08:04:27;;;;;;;;;3.50;2.00;;;;;19.53;63.34;101973.56;5004796;24;45529;31
2021/07/16 08:09:59;;;;;;;;;2.33;2.33;;;;;19.55;62.55;101970.91;4884921;24;45425;-94
2021/07/16 08:12:25;;;;;;;;;2.00;1.00;;;;;19.63;63.02;101979.78;4810593;29;45462;-94
2021/07/16 08:17:37;;;;;;;;;5.00;2.67;;;;;19.66;63.13;101982.47;4833564;24;74558;-94
2021/07/16 08:23:06;;;;;;;;;1.00;1.00;;;;;19.91;62.23;102016.22;5063084;24;67868;-95
2021/07/16 08:25:35;;;;;;;;;2.00;1.00;;;;;19.80;62.43;102000.22;4795277;29;45213;-92
2021/07/16 08:28:06;;;;;;;;;2.00;2.00;;;;;19.79;62.58;102003.78;5180678;24;47964;-90
2021/07/16 08:30:37;;;;;;;;;2.00;2.00;;;;;19.72;62.22;101992.22;4818997;24;45945;-91
2021/07/16 08:33:51;;;;;;;;;3.33;2.00;;;;;19.93;62.41;102021.53;4813317;29;45415;-94
2021/07/16 08:36:16;;;;;;;;;2.67;1.67;;;;;19.82;62.67;101995.75;5172193;24;45344;-90
2021/07/16 08:38:46;;;;;;;;;4.00;2.00;;;;;19.85;62.41;101994.88;4776843;29;47789;-91
2021/07/16 08:48:50;;;;;;;;;2.00;2.00;;;;;19.87;62.16;101993.09;4887968;24;45792;-92
2021/07/16 08:51:21;;;;;;;;;2.00;2.00;;;;;19.85;61.98;102001.13;4825252;24;45393;-91
2021/07/16 08:54:45;;;;;;;;;3.67;1.00;;;;;20.00;62.03;102024.22;4753092;29;45499;-91
2021/07/16 08:57:14;;;;;;;;;1.33;1.33;;;;;19.98;62.03;102023.34;4766891;24;44915;-92
2021/07/16 08:59:47;;;;;;;;;2.00;2.00;;;;;19.88;62.28;102008.22;4758388;29;47972;-90
2021/07/16 09:02:24;;;;;;;;;;;;;;;;;;;;;
2021/07/16 09:08:27;;;;;;;;;3.67;3.00;;;;;19.87;62.24;102001.09;4679910;30;45265;-91
2021/07/16 09:11:09;;;;;;;;;4.00;2.00;;;;;19.87;61.59;102014.44;4743389;24;48327;-94
2021/07/16 09:13:39;;;;;;;;;6.00;3.00;;;;;19.99;61.59;102042.88;4827731;29;45812;-94
2021/07/16 09:16:58;;;;;;;;;4.00;4.00;;;;;19.77;61.77;102024.25;4828023;29;45179;-94
2021/07/16 09:19:52;;;;;;;;;3.00;3.00;;;;;19.79;61.75;102036.69;4772984;29;45694;-93
2021/07/16 09:22:27;;;;;;;;;4.33;4.00;;;;;19.75;61.78;102031.38;4756929;29;47225;-94
2021/07/16 09:25:00;;;;;;;;;3.00;3.00;;;;;19.75;61.91;102034.03;4992755;24;45539;-93
2021/07/16 09:28:14;;;;;;;;;5.33;4.00;;;;;19.81;62.16;102050.03;4833846;29;44838;-91
2021/07/16 09:30:39;;;;;;;;;5.67;4.00;;;;;19.69;62.21;102037.59;4786572;29;44815;-93
2021/07/16 09:33:10;;;;;;;;;6.33;4.00;;;;;19.77;61.92;102053.59;4900116;24;48110;-91
2021/07/16 09:35:39;;;;;;;;;5.33;3.67;;;;;19.64;61.81;102037.59;4795114;29;45440;-90
2021/07/16 09:41:17;;;;;;;;;4.00;4.00;;;;;19.60;61.93;102053.59;5136269;24;46018;-92
2021/07/16 09:43:48;;;;;;;;;7.33;6.00;;;;;19.52;62.30;102037.59;4902260;24;47243;-91
2021/07/16 09:46:15;;;;;;;;;6.33;5.00;;;;;19.54;61.79;102050.00;4817208;24;45473;-93
2021/07/16 09:59:01;;;;;;;;;6.33;4.00;;;;;19.46;62.89;102042.91;4786520;29;45538;-93
2021/07/16 10:01:37;;;;;;;;;6.00;6.00;;;;;19.54;62.67;102055.34;4773584;29;45232;-92
2021/07/16 10:15:07;;;;;;;;;7.00;4.67;;;;;19.78;61.55;102064.25;4815086;24;61068;-92
2021/07/16 10:23:45;;;;;;;;;6.00;4.67;;;;;19.75;61.13;102044.69;4870559;24;46820;-90
2021/07/16 10:35:27;;;;;;;;;4.67;4.67;;;;;19.93;60.90;102066.91;5295673;24;67575;-93
2021/07/16 10:37:56;;;;;;;;;8.33;4.33;;;;;19.81;60.95;102057.16;4831283;24;45599;-92
2021/07/16 10:40:41;;;;;;;;;5.67;5.00;;;;;19.92;60.66;102082.06;4757382;29;48317;-91
2021/07/16 10:43:30;;;;;;;;;4.33;4.33;;;;;19.82;60.85;102077.63;4772220;29;45423;-93
2021/07/16 10:56:43;;;;;;;;;7.50;5.00;;;;;19.72;60.45;102072.25;4982493;24;46627;-93
2021/07/16 11:26:28;;;;;;;;;;;;;;;;;;;;;
2021/07/16 11:28:59;;;;;;;;;7.00;7.00;;;;;19.46;59.54;102089.13;4904061;23;73295;-90
2021/07/16 11:31:37;;;;;;;;;11.67;9.33;;;;;19.47;59.50;102088.25;4834502;29;44654;-91
2021/07/16 11:40:07;;;;;;;;;9.00;8.00;;;;;19.49;59.45;102089.13;4871157;24;45592;-90
2021/07/16 11:45:52;;;;;;;;;9.00;9.00;;;;;19.67;59.47;102111.41;4817178;29;44775;-90
2021/07/16 11:48:22;;;;;;;;;12.00;9.00;;;;;19.51;59.64;102083.78;5132411;23;47334;-90
2021/07/16 11:50:48;;;;;;;;;9.00;8.33;;;;;19.71;59.66;102112.28;4818357;29;44830;-90
2021/07/16 11:53:23;;;;;;;;;9.67;9.67;;;;;19.60;59.37;102093.59;4801171;29;45243;-91
2021/07/16 11:55:56;;;;;;;;;10.67;10.33;;;;;19.58;59.27;102085.59;5207673;24;46744;-92
2021/07/16 11:58:31;;;;;;;;;;;;;;;;;;;;;
2021/07/16 12:01:25;;;;;;;;;8.00;8.00;;;;;19.77;59.13;102106.94;4853620;29;72324;-93
2021/07/16 12:06:53;;;;;;;;;9.00;9.00;;;;;19.72;59.50;102103.38;4790463;24;45194;-92
2021/07/16 12:09:45;;;;;;;;;11.67;9.67;;;;;19.78;59.67;102087.38;5068165;24;48451;-93
2021/07/16 12:12:17;;;;;;;;;13.67;11.67;;;;;19.86;59.65;102100.75;4778144;29;45450;-92
2021/07/16 12:18:08;;;;;;;;;11.00;11.00;;;;;19.80;59.07;102074.91;4812036;29;44804;-92
2021/07/16 12:21:05;;;;;;;;;14.00;8.00;;;;;20.01;60.11;102105.16;4817509;29;47175;-93
2021/07/16 12:26:26;;;;;;;;;12.00;9.00;;;;;19.91;58.68;102085.59;4955222;24;45195;-93
2021/07/16 12:31:36;;;;;;;;;;;;;;;;;;;;;
2021/07/16 12:37:28;;;;;;;;;;;;;;;;;;;;;
2021/07/16 12:40:07;;;;;;;;;12.33;11.00;;;;;19.84;57.95;102087.38;4829786;29;65610;-93
2021/07/16 12:45:44;;;;;;;;;15.33;11.33;;;;;19.94;57.84;102109.63;4809973;24;45536;-92
2021/07/16 12:48:26;;;;;;;;;9.25;8.75;;;;;19.88;57.66;102099.81;4813894;24;6386815;-91
2021/07/16 12:51:13;;;;;;;;;12.33;8.33;;;;;19.84;57.91;102090.03;4825323;24;45563;-90
2021/07/16 12:59:59;;;;;;;;;11.67;9.67;;;;;19.97;57.78;102108.72;4758073;29;45439;-92
2021/07/16 13:04:53;;;;;;;;;11.67;9.00;;;;;19.92;58.12;102095.41;4847749;24;74218;-91
2021/07/16 13:10:21;;;;;;;;;14.00;12.00;;;;;19.93;58.03;102094.50;4884381;23;45896;-92
2021/07/16 13:12:47;;;;;;;;;10.00;10.00;;;;;20.05;57.99;102106.94;4853837;24;45384;-92
2021/07/16 13:24:08;;;;;;;;;17.67;13.67;;;;;20.18;58.27;102107.84;5278031;23;47526;-91
2021/07/16 13:27:36;;;;;;;;;22.00;11.00;;;;;20.29;58.06;102117.63;4813373;29;47540;-92
2021/07/16 13:33:29;;;;;;;;;17.33;13.00;;;;;20.36;58.32;102100.72;4812706;29;45428;-91
2021/07/16 13:37:11;;;;;;;;;;;;;;;;;;;;;
2021/07/16 13:43:13;;;;;;;;;;;;;;;;;;;;;
2021/07/16 13:45:46;;;;;;;;;19.67;15.00;;;;;20.55;56.93;102104.25;4827871;29;68530;-93
2021/07/16 13:48:39;;;;;;;;;12.67;12.00;;;;;20.68;57.98;102113.13;4908271;24;46208;-93
2021/07/16 13:57:01;;;;;;;;;14.67;12.67;;;;;20.94;58.26;102098.75;4968325;24;67530;-92
2021/07/16 14:06:44;;;;;;;;;16.00;15.00;;;;;21.17;57.07;102103.13;1939130;24;46629;31
2021/07/16 14:12:39;;;;;;;;;19.33;11.00;;;;;21.24;56.76;102095.06;5203149;24;46464;-92
2021/07/16 14:36:42;;;;;;;;;16.00;13.67;;;;;21.59;56.23;102080.59;4787130;27;45880;-91
2021/07/16 16:47:07;;;;;;;;;12.33;10.67;;;;;21.52;56.16;102052.09;4603861;24;45524;-82
2021/07/16 16:49:33;;;;;;;;;10.00;9.00;;;;;21.49;56.48;102054.81;4805661;29;45331;-81
2021/07/16 16:51:59;;;;;;;;;9.67;8.33;;;;;21.56;56.37;102069.91;4791271;29;45497;-79
2021/07/16 16:54:25;;;;;;;;;10.33;10.33;;;;;21.58;55.80;102068.09;4791056;29;46340;-79
2021/07/16 16:56:50;;;;;;;;;11.67;10.67;;;;;21.59;56.03;102074.34;4790415;29;45320;-79
2021/07/16 16:59:15;;;;;;;;;17.67;11.67;;;;;21.57;56.16;102061.00;4790604;29;45636;-79
2021/07/16 17:01:41;;;;;;;;;12.33;11.67;;;;;21.63;55.72;102060.06;4791329;29;45462;-79
2021/07/16 17:04:06;;;;;;;;;12.00;10.33;;;;;21.66;55.70;102068.03;4791101;29;45345;-79
2021/07/16 17:06:31;;;;;;;;;11.33;9.00;;;;;21.68;56.24;102055.53;4791082;29;45353;-80
2021/07/16 17:08:57;;;;;;;;;14.33;11.33;;;;;21.66;56.19;102057.34;4791226;29;45297;-79
2021/07/16 17:11:22;;;;;;;;;12.67;12.67;;;;;21.68;56.05;102062.69;4791375;29;45434;-79
2021/07/16 17:13:48;;;;;;;;;14.00;11.33;;;;;21.71;56.60;102057.31;4790181;29;45994;-79
2021/07/16 17:16:13;;;;;;;;;13.67;11.67;;;;;21.70;56.29;102071.59;4791088;29;45321;-79
2021/07/16 17:18:39;;;;;;;;;14.33;12.67;;;;;21.71;56.20;102063.56;4790925;29;45253;-79
2021/07/16 17:21:06;;;;;;;;;13.33;12.00;;;;;21.72;56.62;102067.13;4791330;29;45468;-79
2021/07/16 17:23:31;;;;;;;;;11.67;10.00;;;;;21.69;56.21;102059.09;4790564;29;46135;-79
2021/07/16 17:25:57;;;;;;;;;11.00;11.00;;;;;21.70;56.16;102066.25;4790812;29;45330;-79
2021/07/16 17:28:22;;;;;;;;;14.33;11.00;;;;;21.72;56.13;102067.13;4790910;29;45220;-79
2021/07/16 17:30:50;;;;;;;;;13.33;11.33;;;;;21.71;56.02;102055.53;4790971;29;45435;-79
2021/07/16 17:33:15;;;;;;;;;17.33;12.00;;;;;21.70;55.91;102060.91;4790979;29;46009;-80
2021/07/16 17:35:40;;;;;;;;;12.00;11.67;;;;;21.69;56.55;102057.31;4790538;29;45318;-79
2021/07/16 17:38:06;;;;;;;;;14.00;13.00;;;;;21.71;55.50;102055.53;4790728;29;45464;-80
2021/07/16 17:40:33;;;;;;;;;12.67;11.00;;;;;21.70;55.86;102050.19;4790718;29;45309;-79
2021/07/16 17:42:59;;;;;;;;;14.33;11.00;;;;;21.70;56.46;102056.41;4774396;29;45530;-80
2021/07/16 17:45:27;;;;;;;;;11.00;11.00;;;;;21.69;56.68;102051.97;4773852;29;45985;-80
2021/07/16 17:47:54;;;;;;;;;14.00;12.00;;;;;21.71;56.89;102052.84;4789232;29;45182;-79
2021/07/16 17:50:22;;;;;;;;;17.67;11.67;;;;;21.72;57.03;102057.28;4790609;29;45293;-79
2021/07/16 17:52:47;;;;;;;;;18.67;13.00;;;;;21.68;57.07;102046.63;4790332;29;45345;-80
2021/07/16 17:55:13;;;;;;;;;13.33;11.67;;;;;21.70;57.16;102048.38;4790270;29;45320;-80
2021/07/16 17:57:44;;;;;;;;;16.33;14.33;;;;;21.70;57.06;102050.19;4790513;29;45307;-79
2021/07/16 18:00:20;;;;;;;;;14.67;13.00;;;;;21.70;56.98;102060.91;4787863;29;45598;-79
2021/07/16 18:02:46;;;;;;;;;16.33;11.67;;;;;21.68;57.41;102052.84;4790047;29;46215;-80
2021/07/16 18:05:13;;;;;;;;;12.00;12.00;;;;;21.65;57.21;102044.88;4790173;29;45420;-81
2021/07/16 18:07:40;;;;;;;;;16.00;13.00;;;;;21.62;57.33;102043.09;4789693;29;45335;-79
2021/07/16 18:10:06;;;;;;;;;14.67;11.00;;;;;21.64;57.12;102048.44;4788599;29;45527;-79
2021/07/16 18:12:33;;;;;;;;;12.33;12.00;;;;;21.62;57.36;102044.88;4789995;29;45244;-80
2021/07/16 18:14:59;;;;;;;;;14.00;14.00;;;;;21.60;57.24;102050.25;4790718;29;45334;-79
2021/07/16 18:17:24;;;;;;;;;13.00;13.00;;;;;21.57;57.30;102044.94;4789668;29;45290;-80
2021/07/16 18:19:50;;;;;;;;;11.00;10.67;;;;;21.58;56.71;102051.16;4790626;29;45207;-80
2021/07/16 18:22:15;;;;;;;;;11.67;10.00;;;;;21.54;57.31;102042.28;4790022;29;47216;-80
2021/07/16 18:24:41;;;;;;;;;10.00;10.00;;;;;21.53;57.04;102056.56;4789947;29;45298;-79
2021/07/16 18:27:07;;;;;;;;;16.33;14.00;;;;;21.53;57.37;102059.25;4790180;29;45522;-81
2021/07/16 18:29:32;;;;;;;;;16.33;11.33;;;;;21.52;57.21;102062.81;4788777;29;45454;-80
2021/07/16 18:31:58;;;;;;;;;14.00;11.67;;;;;21.48;57.52;102053.91;4789655;29;46339;-80
2021/07/16 18:34:24;;;;;;;;;11.67;11.67;;;;;21.48;57.65;102055.69;4790035;29;45459;-80
2021/07/16 18:36:50;;;;;;;;;12.00;12.00;;;;;21.47;57.41;102054.81;4790087;29;45272;-80
2021/07/16 18:39:16;;;;;;;;;13.00;11.33;;;;;21.43;57.40;102054.88;4788810;29;45411;-80
2021/07/16 18:41:42;;;;;;;;;14.67;13.00;;;;;21.43;57.57;102062.88;4789704;29;46003;-80
2021/07/16 18:44:08;;;;;;;;;14.33;13.00;;;;;21.40;58.02;102063.78;4789510;29;45445;-80
2021/07/16 18:46:34;;;;;;;;;13.00;13.00;;;;;21.39;58.02;102062.91;4789773;29;45340;-80
2021/07/16 18:49:02;;;;;;;;;17.00;14.00;;;;;21.36;58.22;102073.59;4790036;29;45372;-80
2021/07/16 18:51:31;;;;;;;;;14.00;13.00;;;;;21.33;58.17;102073.63;4789514;29;46419;-80
2021/07/16 18:53:57;;;;;;;;;13.00;10.33;;;;;21.32;57.59;102081.69;4789731;29;45218;-81
2021/07/16 18:56:25;;;;;;;;;13.67;11.33;;;;;21.26;58.14;102074.56;4789692;29;45441;-81
2021/07/16 18:58:51;;;;;;;;;14.67;11.33;;;;;21.26;57.74;102082.56;4789728;29;45173;-81
2021/07/16 19:01:17;;;;;;;;;18.00;16.33;;;;;21.25;57.88;102089.75;4789933;29;45488;-81
2021/07/16 19:03:44;;;;;;;;;16.33;13.00;;;;;21.24;57.88;102095.06;4789586;29;45394;-81
2021/07/16 19:06:10;;;;;;;;;15.33;11.33;;;;;21.21;57.99;102100.44;4789538;29;45358;-81
2021/07/16 19:08:35;;;;;;;;;15.00;12.67;;;;;21.21;57.83;102103.13;4789377;29;45377;-81
2021/07/16 19:11:01;;;;;;;;;17.00;15.33;;;;;21.19;58.29;102096.91;4789398;29;46170;-81
2021/07/16 19:13:26;;;;;;;;;16.00;12.33;;;;;21.14;57.97;102097.81;4788105;29;45272;-81
2021/07/16 19:15:51;;;;;;;;;15.00;12.67;;;;;21.15;58.43;102110.28;4789423;29;45210;-81
2021/07/16 19:18:17;;;;;;;;;13.00;12.00;;;;;21.12;58.08;102112.97;4789793;29;45214;-80
2021/07/16 19:20:42;;;;;;;;;15.00;13.33;;;;;21.10;58.33;102114.78;4790440;29;48414;-81
2021/07/16 19:23:08;;;;;;;;;16.33;12.67;;;;;21.08;57.92;102111.22;4791185;29;45250;-81
2021/07/16 19:25:34;;;;;;;;;15.00;13.00;;;;;21.07;58.14;102109.41;4791202;29;45250;-81
2021/07/16 19:28:01;;;;;;;;;17.33;14.00;;;;;21.04;58.19;102113.03;4791353;29;45651;-81
2021/07/16 19:30:26;;;;;;;;;17.67;12.00;;;;;21.01;58.24;102109.44;4790693;29;48030;-80
2021/07/16 19:32:52;;;;;;;;;15.33;13.67;;;;;20.99;58.20;102105.91;4792147;29;45410;-81
2021/07/16 19:35:18;;;;;;;;;18.00;14.67;;;;;20.97;58.41;102108.53;4791666;29;45376;-81
2021/07/16 19:37:44;;;;;;;;;19.00;17.00;;;;;20.97;58.46;102113.00;4792120;29;45587;-81
2021/07/16 19:40:11;;;;;;;;;16.00;16.00;;;;;20.93;58.65;102112.13;4792144;29;46278;-80
2021/07/16 19:42:36;;;;;;;;;16.00;14.00;;;;;20.91;57.98;102114.81;4792416;29;45468;-80
2021/07/16 19:45:04;;;;;;;;;15.33;15.33;;;;;20.89;58.26;102124.63;4792694;29;45330;-81
2021/07/16 19:47:29;;;;;;;;;16.00;11.33;;;;;20.86;58.12;102123.72;4809683;29;45437;-80
2021/07/16 19:55:47;;;;;;;;;21.67;18.00;;;;;20.64;57.91;102111.34;5753944;23;46494;-93
2021/07/16 20:02:07;;;;;;;;;14.33;14.33;;;;;20.56;58.45;102123.84;5270356;23;46692;-92
2021/07/16 20:17:25;;;;;;;;;16.00;14.33;;;;;;;;4959772;24;67582;-92
2021/07/16 20:20:00;;;;;;;;;;;;;;;;;;;;;
2021/07/16 20:25:06;;;;;;;;;18.33;14.00;;;;;20.33;58.68;102141.66;4991296;24;46603;-92
2021/07/16 20:30:08;;;;;;;;;16.67;15.33;;;;;20.33;59.04;102146.09;4841775;24;60841;-92
2021/07/16 20:41:40;;;;;;;;;19.33;16.33;;;;;20.22;58.77;102155.03;5016600;24;46191;-91
2021/07/16 20:47:53;;;;;;;;;22.00;18.33;;;;;20.32;58.90;102179.97;4955236;23;44854;-94
2021/07/16 20:50:22;;;;;;;;;24.00;20.00;;;;;20.18;59.05;102144.38;4976182;24;46515;-89
2021/07/16 20:59:00;;;;;;;;;20.67;18.33;;;;;20.24;59.02;102171.94;5168146;24;46818;-92
2021/07/16 21:07:18;;;;;;;;;16.67;15.33;;;;;20.23;59.19;102187.97;4847461;24;46620;-94
2021/07/16 21:10:30;;;;;;;;;16.33;15.33;;;;;20.25;59.25;102195.09;4799095;29;45257;-93
2021/07/16 21:13:15;;;;;;;;;;;;;;;;;;;;;
2021/07/16 21:16:31;;;;;;;;;17.67;16.33;;;;;20.09;59.00;102171.94;4743065;29;63637;-94
2021/07/16 21:18:57;;;;;;;;;19.67;17.33;;;;;20.13;59.01;102185.31;4863845;24;48119;-92
2021/07/16 21:21:26;;;;;;;;;18.33;15.67;;;;;20.17;59.51;102186.19;4815586;24;45487;-91
2021/07/16 21:23:53;;;;;;;;;23.67;18.00;;;;;20.12;59.23;102180.84;4820460;29;45463;-92
2021/07/16 21:26:30;;;;;;;;;;;;;;;;;;;;;
2021/07/16 21:29:22;;;;;;;;;24.67;18.33;;;;;20.06;59.59;102177.22;4815146;29;73769;-91
2021/07/16 21:32:13;;;;;;;;;18.33;17.67;;;;;20.19;59.60;102195.09;4811530;24;45218;-92
2021/07/16 21:37:14;;;;;;;;;17.33;15.33;;;;;20.16;59.42;102188.88;4871433;24;60608;-93
2021/07/16 21:42:36;;;;;;;;;;;;;;;;;;;;;
2021/07/16 21:53:43;;;;;;;;;;;;;;;;;;;;;
2021/07/16 22:01:27;;;;;;;;;13.33;13.00;;;;;19.97;59.45;102211.03;4772571;29;46086;-95
2021/07/16 22:03:55;;;;;;;;;16.00;11.00;;;;;19.93;58.52;102195.00;4807905;24;45697;-89
2021/07/16 22:06:21;;;;;;;;;20.33;14.67;;;;;19.93;58.71;102203.00;4813266;29;45404;-93
2021/07/16 22:09:31;;;;;;;;;16.33;13.00;;;;;19.99;58.68;102221.69;4835959;29;45439;-93
2021/07/16 22:12:04;;;;;;;;;15.33;14.67;;;;;19.88;58.92;102219.03;5089723;24;47100;-93
2021/07/16 22:17:27;;;;;;;;;20.00;13.00;;;;;19.87;58.97;102225.25;4856051;24;45425;-90
2021/07/16 22:20:18;;;;;;;;;17.00;11.00;;;;;19.92;58.66;102236.84;4898898;24;44883;-90
